createdAt,value
2019-05-10T00:01:31.741Z,5.90
2019-05-10T00:04:21.467Z,4.30
2019-05-10T00:07:11.103Z,3.83
2019-05-10T00:09:41.919Z,4.73
2019-05-10T00:12:33.607Z,3.80
2019-05-10T00:15:05.835Z,4.73
2019-05-10T00:17:37.745Z,5.03
2019-05-10T00:20:09.840Z,3.37
2019-05-10T00:22:41.819Z,5.07
2019-05-10T00:25:13.860Z,5.33
2019-05-10T00:27:45.686Z,4.23
2019-05-10T00:30:17.762Z,4.10
2019-05-10T00:32:49.638Z,3.23
2019-05-10T00:35:21.492Z,3.93
2019-05-10T00:37:53.410Z,3.27
2019-05-10T00:40:25.428Z,3.70
2019-05-10T00:42:57.266Z,3.37
2019-05-10T00:45:29.216Z,3.60
2019-05-10T00:48:01.128Z,3.50
2019-05-10T00:50:33.007Z,3.00
2019-05-10T00:53:04.965Z,5.23
2019-05-10T00:55:36.751Z,4.40
2019-05-10T00:58:08.682Z,3.10
2019-05-10T01:00:40.506Z,5.57
2019-05-10T01:03:12.401Z,3.73
2019-05-10T01:05:44.296Z,4.63
2019-05-10T01:08:16.131Z,2.47
2019-05-10T01:10:47.979Z,3.97
2019-05-10T01:13:19.864Z,3.20
2019-05-10T01:15:51.766Z,5.57
2019-05-10T01:18:23.599Z,4.90
2019-05-10T01:20:55.487Z,6.30
2019-05-10T01:23:27.324Z,5.37
2019-05-10T01:25:59.182Z,3.40
2019-05-10T01:28:31.025Z,6.10
2019-05-10T01:31:02.912Z,5.37
2019-05-10T01:33:34.714Z,3.20
2019-05-10T01:36:06.729Z,2.83
2019-05-10T01:38:38.631Z,4.13
2019-05-10T01:41:10.558Z,4.93
2019-05-10T01:43:42.549Z,3.73
2019-05-10T01:46:14.368Z,5.90
2019-05-10T01:48:46.280Z,4.30
2019-05-10T01:51:18.143Z,4.20
2019-05-10T01:53:49.992Z,3.20
2019-05-10T01:56:21.851Z,4.70
2019-05-10T01:58:53.778Z,3.37
2019-05-10T02:01:25.673Z,2.47
2019-05-10T02:03:57.521Z,4.97
2019-05-10T02:06:29.321Z,5.30
2019-05-10T02:09:01.230Z,3.57
2019-05-10T02:11:33.199Z,6.10
2019-05-10T02:14:05.154Z,4.17
2019-05-10T02:16:36.940Z,4.43
2019-05-10T02:19:08.814Z,2.73
2019-05-10T02:21:40.627Z,5.20
2019-05-10T02:24:12.450Z,3.10
2019-05-10T02:26:44.345Z,5.60
2019-05-10T02:29:16.177Z,2.57
2019-05-10T02:31:47.988Z,3.80
2019-05-10T02:34:19.816Z,4.70
2019-05-10T02:36:51.652Z,6.87
2019-05-10T02:39:23.513Z,4.27
2019-05-10T02:41:55.329Z,3.30
2019-05-10T02:44:27.182Z,5.17
2019-05-10T02:46:59.056Z,4.73
2019-05-10T02:49:30.947Z,3.93
2019-05-10T02:52:02.908Z,3.17
2019-05-10T02:54:34.873Z,3.77
2019-05-10T02:57:09.233Z,5.77
2019-05-10T02:59:41.836Z,3.63
2019-05-10T03:02:15.053Z,4.00
2019-05-10T03:04:48.049Z,5.20
2019-05-10T03:07:22.864Z,4.20
2019-05-10T03:09:54.655Z,3.20
2019-05-10T03:12:27.802Z,3.63
2019-05-10T03:15:00.469Z,4.07
2019-05-10T03:17:32.760Z,3.60
2019-05-10T03:20:04.722Z,3.23
2019-05-10T03:22:44.106Z,5.60
2019-05-10T03:25:16.684Z,6.40
2019-05-10T03:27:48.569Z,4.23
2019-05-10T03:30:20.554Z,4.10
2019-05-10T03:32:52.427Z,5.67
2019-05-10T03:35:24.575Z,3.60
2019-05-10T03:37:56.656Z,3.63
2019-05-10T03:40:28.602Z,3.17
2019-05-10T03:43:00.462Z,4.57
2019-05-10T03:45:32.319Z,4.03
2019-05-10T03:48:04.120Z,7.27
2019-05-10T03:50:36.077Z,4.93
2019-05-10T03:53:07.934Z,5.50
2019-05-10T03:55:39.770Z,4.17
2019-05-10T03:58:11.626Z,4.23
2019-05-10T04:00:55.175Z,4.77
2019-05-10T04:03:27.100Z,3.93
2019-05-10T04:05:58.961Z,3.50
2019-05-10T04:08:30.866Z,5.30
2019-05-10T04:11:03.240Z,4.23
2019-05-10T04:13:35.085Z,6.03
2019-05-10T04:16:06.958Z,4.80
2019-05-10T04:18:38.815Z,6.57
2019-05-10T04:21:10.645Z,5.23
2019-05-10T04:23:42.513Z,4.93
2019-05-10T04:26:14.334Z,4.77
2019-05-10T04:28:46.180Z,6.30
2019-05-10T04:31:18.052Z,6.97
2019-05-10T04:33:49.899Z,6.67
2019-05-10T04:36:21.854Z,5.03
2019-05-10T04:38:53.706Z,7.23
2019-05-10T04:41:25.542Z,5.33
2019-05-10T04:43:57.507Z,5.00
2019-05-10T04:46:29.359Z,5.40
2019-05-10T04:49:01.160Z,6.37
2019-05-10T04:51:33.282Z,5.77
2019-05-10T04:54:05.133Z,5.77
2019-05-10T04:56:37.107Z,6.03
2019-05-10T04:59:08.889Z,7.60
2019-05-10T05:01:40.772Z,7.23
2019-05-10T05:04:14.132Z,9.23
2019-05-10T05:06:46.013Z,6.20
2019-05-10T05:09:17.899Z,6.93
2019-05-10T05:11:49.710Z,6.10
2019-05-10T05:14:21.614Z,8.00
2019-05-10T05:16:53.520Z,6.17
2019-05-10T05:19:25.442Z,6.77
2019-05-10T05:21:57.337Z,6.37
2019-05-10T05:24:29.191Z,8.80
2019-05-10T05:27:01.109Z,7.53
2019-05-10T05:29:33.317Z,6.87
2019-05-10T05:32:08.366Z,6.50
2019-05-10T05:34:40.188Z,9.20
2019-05-10T05:37:12.024Z,6.60
2019-05-10T05:39:43.824Z,7.40
2019-05-10T05:42:22.296Z,7.17
2019-05-10T05:44:52.027Z,7.60
2019-05-10T05:47:25.410Z,8.63
2019-05-10T05:49:57.398Z,10.47
2019-05-10T05:52:29.215Z,8.17
2019-05-10T05:55:01.147Z,9.70
2019-05-10T05:57:33.307Z,7.80
2019-05-10T06:00:06.712Z,7.63
2019-05-10T06:02:44.292Z,7.80
2019-05-10T06:05:32.260Z,7.80
2019-05-10T06:07:51.623Z,9.47
2019-05-10T06:10:21.389Z,10.90
2019-05-10T06:12:53.226Z,7.90
2019-05-10T06:15:29.038Z,8.97
2019-05-10T06:18:17.851Z,9.07
2019-05-10T06:20:49.634Z,6.93
2019-05-10T06:23:21.541Z,8.80
2019-05-10T06:25:54.670Z,9.23
2019-05-10T06:28:42.979Z,13.03
2019-05-10T06:31:00.155Z,9.13
2019-05-10T06:33:32.031Z,10.03
2019-05-10T06:36:04.022Z,8.93
2019-05-10T06:38:36.083Z,13.10
2019-05-10T06:41:10.116Z,8.73
2019-05-10T06:43:45.663Z,8.97
2019-05-10T06:46:17.065Z,7.70
2019-05-10T06:48:48.968Z,8.60
2019-05-10T06:51:20.804Z,7.77
2019-05-10T06:53:53.956Z,8.17
2019-05-10T06:56:26.006Z,8.47
2019-05-10T06:59:12.342Z,8.17
2019-05-10T07:01:31.430Z,9.53
2019-05-10T07:04:04.616Z,8.33
2019-05-10T07:06:36.700Z,9.37
2019-05-10T07:09:09.061Z,7.70
2019-05-10T07:11:40.932Z,7.87
2019-05-10T07:14:12.768Z,8.03
2019-05-10T07:16:44.640Z,7.87
2019-05-10T07:19:16.617Z,8.13
2019-05-10T07:21:51.159Z,6.97
2019-05-10T07:24:24.909Z,7.00
2019-05-10T07:27:01.210Z,7.63
2019-05-10T07:29:30.754Z,7.57
2019-05-10T07:32:04.815Z,9.27
2019-05-10T07:34:36.697Z,7.13
2019-05-10T07:37:09.206Z,7.87
2019-05-10T07:39:41.061Z,7.40
2019-05-10T07:42:13.422Z,11.50
2019-05-10T07:44:46.894Z,8.47
2019-05-10T07:47:23.990Z,8.17
2019-05-10T07:49:53.402Z,7.33
2019-05-10T07:52:25.758Z,7.53
2019-05-10T07:54:57.547Z,7.17
2019-05-10T07:57:29.586Z,8.10
2019-05-10T08:00:03.456Z,6.57
2019-05-10T08:02:36.019Z,5.37
2019-05-10T08:05:13.804Z,5.20
2019-05-10T08:07:42.728Z,6.17
2019-05-10T08:10:15.651Z,4.73
2019-05-10T08:12:48.535Z,5.37
2019-05-10T08:15:24.740Z,6.00
2019-05-10T08:17:55.321Z,4.73
2019-05-10T08:20:42.215Z,4.70
2019-05-10T08:23:02.831Z,5.73
2019-05-10T08:25:36.364Z,6.53
2019-05-10T08:28:08.641Z,4.40
2019-05-10T08:30:53.508Z,3.93
2019-05-10T08:33:22.736Z,4.27
2019-05-10T08:36:00.550Z,3.30
2019-05-10T08:38:28.575Z,3.80
2019-05-10T08:41:02.685Z,3.93
2019-05-10T08:43:38.845Z,3.23
2019-05-10T08:46:12.031Z,3.73
2019-05-10T08:48:50.259Z,5.33
2019-05-10T08:51:17.150Z,3.93
2019-05-10T08:53:55.909Z,2.97
2019-05-10T08:56:24.159Z,2.03
2019-05-10T08:58:57.386Z,2.37
2019-05-10T09:01:31.346Z,1.90
2019-05-10T09:04:07.089Z,3.50
2019-05-10T09:06:41.901Z,2.97
2019-05-10T09:09:14.720Z,3.23
2019-05-10T09:11:48.016Z,3.10
2019-05-10T09:14:24.007Z,3.27
2019-05-10T09:17:00.847Z,3.57
2019-05-10T09:19:39.259Z,5.13
2019-05-10T09:22:03.229Z,3.67
2019-05-10T09:24:40.413Z,3.33
2019-05-10T09:27:08.628Z,4.93
2019-05-10T09:29:40.442Z,3.60
2019-05-10T09:32:12.612Z,2.53
2019-05-10T09:34:44.591Z,3.40
2019-05-10T09:37:17.767Z,2.10
2019-05-10T09:39:55.483Z,3.37
2019-05-10T09:42:26.794Z,3.37
2019-05-10T09:44:58.495Z,7.17
2019-05-10T09:47:32.850Z,6.03
2019-05-10T09:50:03.790Z,5.23
2019-05-10T09:52:35.577Z,3.23
2019-05-10T09:55:12.497Z,2.47
2019-05-10T09:57:40.806Z,2.33
2019-05-10T10:00:17.485Z,2.57
2019-05-10T10:02:56.463Z,4.67
2019-05-10T10:05:25.250Z,2.30
2019-05-10T10:07:57.853Z,2.43
2019-05-10T10:10:32.440Z,3.30
2019-05-10T10:13:12.023Z,2.87
2019-05-10T10:15:37.389Z,4.40
2019-05-10T10:18:12.527Z,4.43
2019-05-10T10:20:45.183Z,2.97
2019-05-10T10:23:17.283Z,4.37
2019-05-10T10:25:49.521Z,3.37
2019-05-10T10:28:22.562Z,2.63
2019-05-10T10:30:59.946Z,3.23
2019-05-10T10:33:29.291Z,4.30
2019-05-10T10:36:10.301Z,2.30
2019-05-10T10:38:37.053Z,3.00
2019-05-10T10:41:25.640Z,5.03
2019-05-10T10:43:54.536Z,3.07
2019-05-10T10:46:28.094Z,3.37
2019-05-10T10:49:01.077Z,2.53
2019-05-10T10:51:34.678Z,3.33
2019-05-10T10:54:07.642Z,3.13
2019-05-10T10:56:39.873Z,2.90
2019-05-10T10:59:11.581Z,6.07
2019-05-10T11:01:49.440Z,3.93
2019-05-10T11:04:17.745Z,3.60
2019-05-10T11:06:49.640Z,2.87
2019-05-10T11:09:21.569Z,6.67
2019-05-10T11:12:00.887Z,2.83
2019-05-10T11:14:39.359Z,2.87
2019-05-10T11:17:04.770Z,2.50
2019-05-10T11:19:37.567Z,3.17
2019-05-10T11:22:18.208Z,4.97
2019-05-10T11:24:53.420Z,3.80
2019-05-10T11:27:24.861Z,4.13
2019-05-10T11:30:00.965Z,3.47
2019-05-10T11:32:35.476Z,3.47
2019-05-10T11:35:17.227Z,3.63
2019-05-10T11:37:54.618Z,3.83
2019-05-10T11:40:30.835Z,3.60
2019-05-10T11:43:01.494Z,3.57
2019-05-10T11:45:35.290Z,3.00
2019-05-10T11:48:07.257Z,3.43
2019-05-10T11:50:41.050Z,3.97
2019-05-10T11:53:17.332Z,3.20
2019-05-10T11:55:51.700Z,3.40
2019-05-10T11:58:24.974Z,3.77
2019-05-10T12:01:00.345Z,4.47
2019-05-10T12:03:31.934Z,4.17
2019-05-10T12:08:42.540Z,6.40
2019-05-10T12:11:28.334Z,4.67
2019-05-10T12:13:47.641Z,4.60
2019-05-10T12:16:21.481Z,7.53
2019-05-10T12:19:10.621Z,6.00
2019-05-10T12:21:28.458Z,4.97
2019-05-10T12:24:10.584Z,6.33
2019-05-10T12:26:27.035Z,4.00
2019-05-10T12:29:12.144Z,6.20
2019-05-10T12:31:41.468Z,7.13
2019-05-10T12:34:14.547Z,5.47
2019-05-10T12:36:46.515Z,6.23
2019-05-10T12:39:18.263Z,6.67
2019-05-10T12:41:52.876Z,6.63
2019-05-10T12:44:23.438Z,8.93
2019-05-10T12:46:55.261Z,7.30
2019-05-10T12:49:28.670Z,7.40
2019-05-10T12:52:00.396Z,6.20
2019-05-10T12:54:32.103Z,6.57
2019-05-10T12:57:03.816Z,6.77
2019-05-10T12:59:36.589Z,7.13
2019-05-10T13:02:10.792Z,5.70
2019-05-10T13:04:41.821Z,6.77
2019-05-10T13:07:13.602Z,6.87
2019-05-10T13:09:49.171Z,7.50
2019-05-10T13:12:18.804Z,7.30
2019-05-10T13:14:52.861Z,7.23
2019-05-10T13:17:24.032Z,6.10
2019-05-10T13:19:58.429Z,6.10
2019-05-10T13:22:36.668Z,8.17
2019-05-10T13:25:02.698Z,6.33
2019-05-10T13:27:34.494Z,7.07
2019-05-10T13:30:07.341Z,7.97
2019-05-10T13:32:39.056Z,5.97
2019-05-10T13:35:11.214Z,5.03
2019-05-10T13:37:42.941Z,5.53
2019-05-10T13:40:15.026Z,4.13
2019-05-10T13:42:46.808Z,3.73
2019-05-10T13:45:18.752Z,4.30
2019-05-10T13:47:50.527Z,5.50
2019-05-10T13:50:22.471Z,4.70
2019-05-10T13:52:54.334Z,5.53
2019-05-10T13:55:26.190Z,6.27
2019-05-10T13:57:58.092Z,6.87
2019-05-10T14:00:34.177Z,6.13
2019-05-10T14:03:04.904Z,5.43
2019-05-10T14:05:39.924Z,5.53
2019-05-10T14:08:10.930Z,7.67
2019-05-10T14:10:42.800Z,5.60
2019-05-10T14:13:16.902Z,6.07
2019-05-10T14:15:48.109Z,6.30
2019-05-10T14:18:24.694Z,5.77
2019-05-10T14:20:56.533Z,6.07
2019-05-10T14:23:28.793Z,3.83
2019-05-10T14:26:01.731Z,3.00
2019-05-10T14:28:33.433Z,2.40
2019-05-10T14:31:05.257Z,2.43
2019-05-10T14:33:37.117Z,2.40
2019-05-10T14:36:08.833Z,2.43
2019-05-10T14:38:40.577Z,3.20
2019-05-10T14:41:13.409Z,3.83
2019-05-10T14:43:45.281Z,4.53
2019-05-10T14:46:17.056Z,4.20
2019-05-10T14:48:48.798Z,4.07
2019-05-10T14:51:20.539Z,3.97
2019-05-10T14:53:52.358Z,6.07
2019-05-10T14:56:24.111Z,4.27
2019-05-10T14:58:55.895Z,4.73
2019-05-10T15:01:27.689Z,4.80
2019-05-10T15:03:59.454Z,4.30
2019-05-10T15:06:36.873Z,5.23
2019-05-10T15:09:20.572Z,4.43
2019-05-10T15:11:42.104Z,3.70
2019-05-10T15:14:13.898Z,3.80
2019-05-10T15:16:45.580Z,4.20
2019-05-10T15:19:17.373Z,4.13
2019-05-10T15:21:49.771Z,4.50
2019-05-10T15:24:21.488Z,5.37
2019-05-10T15:26:53.360Z,5.63
2019-05-10T15:29:25.142Z,4.90
2019-05-10T15:31:57.013Z,4.70
2019-05-10T15:34:28.832Z,4.53
2019-05-10T15:37:02.488Z,5.07
2019-05-10T15:39:34.079Z,5.47
2019-05-10T15:42:05.842Z,7.53
2019-05-10T15:44:37.812Z,5.17
2019-05-10T15:47:14.406Z,5.47
2019-05-10T15:49:43.130Z,5.90
2019-05-10T15:52:17.671Z,5.07
2019-05-10T15:54:48.467Z,5.30
2019-05-10T15:57:21.878Z,4.83
2019-05-10T15:59:56.580Z,5.03
2019-05-10T16:02:27.697Z,5.77
2019-05-10T16:04:59.504Z,6.00
2019-05-10T16:07:31.260Z,5.97
2019-05-10T16:10:03.133Z,5.57
2019-05-10T16:12:37.777Z,6.37
2019-05-10T16:15:14.022Z,7.23
2019-05-10T16:17:42.589Z,6.27
2019-05-10T16:20:14.524Z,5.90
2019-05-10T16:22:46.397Z,6.43
2019-05-10T16:25:18.169Z,5.57
2019-05-10T16:27:49.899Z,5.03
2019-05-10T16:30:21.746Z,2.93
2019-05-10T16:32:53.459Z,2.87
2019-05-10T16:35:38.041Z,2.57
2019-05-10T16:37:58.757Z,3.37
2019-05-10T16:40:30.621Z,3.90
2019-05-10T16:43:06.990Z,3.83
2019-05-10T16:45:35.809Z,3.97
2019-05-10T16:48:07.621Z,4.43
2019-05-10T16:50:39.436Z,4.07
2019-05-10T16:53:11.193Z,4.33
2019-05-10T16:55:43.104Z,4.13
2019-05-10T16:58:17.928Z,5.60
2019-05-10T17:00:48.800Z,4.40
2019-05-10T17:03:20.780Z,5.63
2019-05-10T17:05:53.931Z,4.17
2019-05-10T17:08:30.693Z,4.20
2019-05-10T17:10:59.566Z,4.90
2019-05-10T17:13:31.317Z,4.97
2019-05-10T17:16:03.066Z,5.43
2019-05-10T17:18:34.793Z,4.43
2019-05-10T17:21:06.672Z,4.93
2019-05-10T17:23:41.517Z,5.03
2019-05-10T17:26:13.264Z,4.97
2019-05-10T17:28:45.151Z,4.47
2019-05-10T17:31:16.901Z,5.27
2019-05-10T17:33:48.667Z,5.07
2019-05-10T17:36:21.568Z,4.67
2019-05-10T17:38:55.518Z,5.77
2019-05-10T17:41:27.135Z,4.67
2019-05-10T17:43:58.877Z,4.73
2019-05-10T17:46:30.653Z,4.87
2019-05-10T17:49:02.483Z,4.87
2019-05-10T17:51:34.452Z,4.80
2019-05-10T17:54:06.237Z,4.57
2019-05-10T17:56:40.514Z,5.03
2019-05-10T17:59:13.835Z,4.67
2019-05-10T18:01:45.412Z,4.77
2019-05-10T18:04:17.358Z,4.57
2019-05-10T18:06:49.163Z,4.70
2019-05-10T18:09:22.546Z,4.40
2019-05-10T18:11:54.444Z,4.00
2019-05-10T18:14:29.405Z,5.03
2019-05-10T18:16:59.878Z,4.67
2019-05-10T18:19:31.672Z,5.07
2019-05-10T18:22:06.436Z,5.37
2019-05-10T18:24:42.277Z,4.67
2019-05-10T18:27:15.918Z,5.73
2019-05-10T18:29:47.802Z,6.67
2019-05-10T18:32:19.598Z,5.73
2019-05-10T18:34:51.557Z,4.73
2019-05-10T18:37:23.488Z,4.60
2019-05-10T18:39:55.641Z,4.70
2019-05-10T18:42:27.940Z,5.03
2019-05-10T18:45:00.122Z,6.93
2019-05-10T18:47:31.948Z,5.17
2019-05-10T18:50:03.961Z,5.37
2019-05-10T18:52:35.808Z,5.93
2019-05-10T18:55:07.766Z,6.77
2019-05-10T18:57:39.540Z,6.57
2019-05-10T19:00:17.589Z,7.43
2019-05-10T19:02:55.195Z,8.37
2019-05-10T19:05:31.675Z,9.67
2019-05-10T19:08:05.443Z,9.20
2019-05-10T19:10:36.644Z,8.50
2019-05-10T19:13:08.875Z,8.50
2019-05-10T19:15:46.365Z,8.07
2019-05-10T19:18:17.695Z,8.33
2019-05-10T19:20:52.869Z,6.77
2019-05-10T19:23:24.035Z,6.10
2019-05-10T19:25:55.840Z,6.40
2019-05-10T19:28:28.599Z,6.30
2019-05-10T19:31:01.791Z,6.57
2019-05-10T19:33:36.142Z,7.43
2019-05-10T19:36:13.026Z,6.00
2019-05-10T19:38:44.640Z,6.10
2019-05-10T19:41:20.270Z,7.10
2019-05-10T19:44:01.956Z,6.47
2019-05-10T19:46:38.636Z,6.40
2019-05-10T19:49:07.561Z,7.00
2019-05-10T19:51:42.267Z,7.00
2019-05-10T19:54:19.547Z,6.33
2019-05-10T19:56:50.309Z,8.07
2019-05-10T19:59:22.226Z,9.07
2019-05-10T20:02:00.902Z,10.87
2019-05-10T20:04:34.152Z,11.03
2019-05-10T20:07:06.061Z,13.57
2019-05-10T20:09:41.324Z,13.70
2019-05-10T20:12:15.992Z,17.87
2019-05-10T20:14:47.968Z,11.40
2019-05-10T20:17:21.440Z,10.80
2019-05-10T20:19:53.845Z,8.50
2019-05-10T20:22:26.880Z,7.90
2019-05-10T20:24:58.718Z,7.87
2019-05-10T20:27:30.445Z,8.73
2019-05-10T20:30:02.469Z,7.60
2019-05-10T20:32:34.389Z,7.80
2019-05-10T20:35:06.486Z,7.47
2019-05-10T20:37:38.315Z,8.33
2019-05-10T20:40:10.847Z,7.13
2019-05-10T20:42:42.642Z,9.17
2019-05-10T20:45:15.037Z,8.77
2019-05-10T20:47:46.820Z,7.37
2019-05-10T20:50:18.485Z,8.53
2019-05-10T20:52:50.234Z,9.00
2019-05-10T20:55:22.031Z,8.50
2019-05-10T20:57:53.807Z,8.57
2019-05-10T21:00:25.520Z,8.97
2019-05-10T21:02:57.280Z,7.30
2019-05-10T21:05:29.071Z,8.33
2019-05-10T21:08:15.061Z,8.13
2019-05-10T21:10:34.326Z,7.70
2019-05-10T21:13:06.230Z,7.50
2019-05-10T21:15:38.088Z,8.07
2019-05-10T21:18:09.864Z,8.50
2019-05-10T21:20:41.680Z,7.07
2019-05-10T21:23:13.497Z,7.33
2019-05-10T21:25:46.481Z,8.03
2019-05-10T21:28:18.288Z,7.93
2019-05-10T21:30:53.291Z,7.67
2019-05-10T21:33:23.694Z,8.67
2019-05-10T21:35:55.525Z,8.20
2019-05-10T21:38:32.902Z,7.23
2019-05-10T21:41:02.499Z,7.30
2019-05-10T21:43:35.418Z,7.70
2019-05-10T21:46:07.139Z,7.53
2019-05-10T21:48:38.952Z,7.07
2019-05-10T21:51:10.758Z,6.43
2019-05-10T21:53:42.489Z,7.73
2019-05-10T21:56:14.219Z,6.57
2019-05-10T21:58:45.950Z,6.77
2019-05-10T22:01:17.922Z,6.60
2019-05-10T22:03:49.675Z,7.27
2019-05-10T22:06:21.379Z,7.53
2019-05-10T22:08:53.095Z,7.63
2019-05-10T22:11:24.837Z,7.80
2019-05-10T22:13:56.579Z,7.37
2019-05-10T22:16:28.294Z,7.40
2019-05-10T22:19:02.090Z,10.80
2019-05-10T22:21:33.899Z,7.50
2019-05-10T22:24:06.022Z,8.77
2019-05-10T22:26:37.838Z,7.83
2019-05-10T22:29:09.600Z,8.20
2019-05-10T22:31:41.353Z,7.97
2019-05-10T22:34:13.178Z,8.63
2019-05-10T22:36:44.941Z,8.23
2019-05-10T22:39:16.659Z,8.63
2019-05-10T22:41:48.419Z,8.43
2019-05-10T22:44:20.165Z,9.43
2019-05-10T22:46:52.023Z,9.10
2019-05-10T22:49:23.827Z,8.37
2019-05-10T22:51:55.648Z,8.90
2019-05-10T22:54:27.519Z,7.70
2019-05-10T22:56:59.376Z,8.83
2019-05-10T22:59:31.091Z,8.87
2019-05-10T23:02:02.871Z,8.77
2019-05-10T23:04:34.593Z,8.73
2019-05-10T23:07:06.691Z,9.10
2019-05-10T23:09:38.487Z,8.57
2019-05-10T23:12:10.286Z,8.10
2019-05-10T23:14:42.102Z,8.37
2019-05-10T23:17:14.106Z,8.60
2019-05-10T23:19:45.861Z,9.00
2019-05-10T23:22:17.633Z,8.53
2019-05-10T23:24:49.326Z,8.50
2019-05-10T23:27:21.054Z,8.00
2019-05-10T23:29:52.775Z,9.53
2019-05-10T23:32:24.540Z,9.60
2019-05-10T23:34:56.397Z,10.10
2019-05-10T23:37:28.219Z,9.17
2019-05-10T23:39:59.997Z,9.90
2019-05-10T23:42:31.680Z,9.30
2019-05-10T23:45:03.415Z,9.70
2019-05-10T23:47:35.160Z,8.80
2019-05-10T23:50:07.163Z,9.83
2019-05-10T23:52:40.835Z,10.83
2019-05-10T23:55:12.872Z,12.90
2019-05-10T23:57:44.590Z,11.40
